sensor_id;sensor_type;location;lat;lon;timestamp;pressure;altitude;pressure_sealevel;temperature;humidity
17054;BME280;8643;48.824;11.422;2023-04-26T00:01:06;96829.03;;;5.26;100.00
17054;BME280;8643;48.824;11.422;2023-04-26T00:03:34;96826.31;;;5.26;100.00
17054;BME280;8643;48.824;11.422;2023-04-26T00:06:04;96825.53;;;5.25;100.00
17054;BME280;8643;48.824;11.422;2023-04-26T00:08:37;96824.94;;;5.28;100.00
17054;BME280;8643;48.824;11.422;2023-04-26T00:11:05;96830.16;;;5.39;100.00
17054;BME280;8643;48.824;11.422;2023-04-26T00:13:34;96835.09;;;5.37;100.00
17054;BME280;8643;48.824;11.422;2023-04-26T00:16:05;96835.91;;;5.51;100.00
17054;BME280;8643;48.824;11.422;2023-04-26T00:18:33;96845.47;;;5.48;100.00
17054;BME280;8643;48.824;11.422;2023-04-26T00:21:02;96840.63;;;5.45;100.00
17054;BME280;8643;48.824;11.422;2023-04-26T00:23:31;96835.97;;;5.46;100.00
17054;BME280;8643;48.824;11.422;2023-04-26T00:26:00;96845.75;;;5.47;100.00
17054;BME280;8643;48.824;11.422;2023-04-26T00:28:29;96845.41;;;5.21;100.00
17054;BME280;8643;48.824;11.422;2023-04-26T00:30:58;96850.75;;;5.12;100.00
17054;BME280;8643;48.824;11.422;2023-04-26T00:33:28;96851.03;;;5.10;100.00
17054;BME280;8643;48.824;11.422;2023-04-26T00:35:56;96847.00;;;5.08;100.00
17054;BME280;8643;48.824;11.422;2023-04-26T00:38:25;96846.22;;;5.07;100.00
17054;BME280;8643;48.824;11.422;2023-04-26T00:40:54;96846.81;;;5.04;100.00
17054;BME280;8643;48.824;11.422;2023-04-26T00:43:24;96843.69;;;4.97;100.00
17054;BME280;8643;48.824;11.422;2023-04-26T00:45:53;96842.06;;;4.96;100.00
17054;BME280;8643;48.824;11.422;2023-04-26T00:48:22;96842.75;;;5.02;100.00
17054;BME280;8643;48.824;11.422;2023-04-26T00:50:50;96846.00;;;5.04;100.00
17054;BME280;8643;48.824;11.422;2023-04-26T00:53:20;96850.22;;;5.10;100.00
17054;BME280;8643;48.824;11.422;2023-04-26T00:55:49;96854.06;;;5.09;100.00
17054;BME280;8643;48.824;11.422;2023-04-26T00:58:18;96849.22;;;5.06;100.00
17054;BME280;8643;48.824;11.422;2023-04-26T01:00:48;96849.91;;;4.98;100.00
17054;BME280;8643;48.824;11.422;2023-04-26T01:03:18;96852.63;;;4.98;100.00
17054;BME280;8643;48.824;11.422;2023-04-26T01:05:48;96853.78;;;4.91;100.00
17054;BME280;8643;48.824;11.422;2023-04-26T01:08:17;96853.28;;;4.89;100.00
17054;BME280;8643;48.824;11.422;2023-04-26T01:10:47;96849.84;;;4.84;100.00
17054;BME280;8643;48.824;11.422;2023-04-26T01:13:16;96846.03;;;4.85;100.00
17054;BME280;8643;48.824;11.422;2023-04-26T01:15:48;96856.16;;;4.79;100.00
17054;BME280;8643;48.824;11.422;2023-04-26T01:18:18;96857.19;;;4.83;100.00
17054;BME280;8643;48.824;11.422;2023-04-26T01:20:46;96858.28;;;4.82;100.00
17054;BME280;8643;48.824;11.422;2023-04-26T01:23:16;96860.28;;;4.76;100.00
17054;BME280;8643;48.824;11.422;2023-04-26T01:25:45;96854.50;;;4.64;100.00
17054;BME280;8643;48.824;11.422;2023-04-26T01:28:15;96855.69;;;4.58;100.00
17054;BME280;8643;48.824;11.422;2023-04-26T01:30:43;96861.03;;;4.44;100.00
17054;BME280;8643;48.824;11.422;2023-04-26T01:33:12;96858.91;;;4.22;100.00
17054;BME280;8643;48.824;11.422;2023-04-26T01:35:42;96869.25;;;4.01;100.00
17054;BME280;8643;48.824;11.422;2023-04-26T01:38:10;96865.09;;;3.84;100.00
17054;BME280;8643;48.824;11.422;2023-04-26T01:40:41;96866.56;;;3.77;100.00
17054;BME280;8643;48.824;11.422;2023-04-26T01:43:12;96868.84;;;3.64;100.00
17054;BME280;8643;48.824;11.422;2023-04-26T01:45:42;96868.69;;;3.56;100.00
17054;BME280;8643;48.824;11.422;2023-04-26T01:48:29;96876.34;;;3.48;100.00
17054;BME280;8643;48.824;11.422;2023-04-26T01:51:00;96869.19;;;3.34;100.00
17054;BME280;8643;48.824;11.422;2023-04-26T01:53:28;96877.47;;;3.18;100.00
17054;BME280;8643;48.824;11.422;2023-04-26T01:56:01;96872.63;;;3.15;100.00
17054;BME280;8643;48.824;11.422;2023-04-26T01:58:30;96869.44;;;3.08;100.00
17054;BME280;8643;48.824;11.422;2023-04-26T02:01:05;96876.06;;;2.97;100.00
17054;BME280;8643;48.824;11.422;2023-04-26T02:03:34;96876.91;;;2.92;100.00
17054;BME280;8643;48.824;11.422;2023-04-26T02:06:03;96880.50;;;2.82;100.00
17054;BME280;8643;48.824;11.422;2023-04-26T02:08:31;96876.03;;;2.67;100.00
17054;BME280;8643;48.824;11.422;2023-04-26T02:11:02;96882.53;;;2.61;100.00
17054;BME280;8643;48.824;11.422;2023-04-26T02:13:30;96886.69;;;2.48;100.00
17054;BME280;8643;48.824;11.422;2023-04-26T02:15:59;96883.75;;;2.45;100.00
17054;BME280;8643;48.824;11.422;2023-04-26T02:18:27;96876.63;;;2.54;100.00
17054;BME280;8643;48.824;11.422;2023-04-26T02:20:56;96882.88;;;2.54;100.00
17054;BME280;8643;48.824;11.422;2023-04-26T02:23:25;96881.00;;;2.50;100.00
17054;BME280;8643;48.824;11.422;2023-04-26T02:25:53;96876.41;;;2.50;100.00
17054;BME280;8643;48.824;11.422;2023-04-26T02:28:23;96874.44;;;2.61;100.00
17054;BME280;8643;48.824;11.422;2023-04-26T02:30:54;96873.03;;;2.64;100.00
17054;BME280;8643;48.824;11.422;2023-04-26T02:33:24;96872.75;;;2.65;100.00
17054;BME280;8643;48.824;11.422;2023-04-26T02:35:53;96875.44;;;2.70;100.00
17054;BME280;8643;48.824;11.422;2023-04-26T02:38:21;96881.63;;;2.76;100.00
17054;BME280;8643;48.824;11.422;2023-04-26T02:40:57;96881.34;;;2.78;100.00
17054;BME280;8643;48.824;11.422;2023-04-26T02:43:28;96879.66;;;2.87;100.00
17054;BME280;8643;48.824;11.422;2023-04-26T02:45:58;96881.59;;;3.10;100.00
17054;BME280;8643;48.824;11.422;2023-04-26T02:48:28;96881.59;;;3.10;100.00
17054;BME280;8643;48.824;11.422;2023-04-26T02:50:57;96880.78;;;3.10;100.00
17054;BME280;8643;48.824;11.422;2023-04-26T02:53:26;96875.66;;;3.08;100.00
17054;BME280;8643;48.824;11.422;2023-04-26T02:55:54;96870.78;;;3.10;100.00
17054;BME280;8643;48.824;11.422;2023-04-26T02:58:23;96872.13;;;3.08;100.00
17054;BME280;8643;48.824;11.422;2023-04-26T03:00:53;96873.28;;;3.02;100.00
17054;BME280;8643;48.824;11.422;2023-04-26T03:03:27;96869.28;;;2.94;100.00
17054;BME280;8643;48.824;11.422;2023-04-26T03:05:58;96871.00;;;2.85;100.00
17054;BME280;8643;48.824;11.422;2023-04-26T03:08:26;96869.81;;;2.96;100.00
17054;BME280;8643;48.824;11.422;2023-04-26T03:10:55;96872.81;;;2.94;100.00
17054;BME280;8643;48.824;11.422;2023-04-26T03:13:24;96877.47;;;2.89;100.00
17054;BME280;8643;48.824;11.422;2023-04-26T03:15:56;96878.31;;;2.84;100.00
17054;BME280;8643;48.824;11.422;2023-04-26T03:18:25;96878.25;;;2.89;100.00
17054;BME280;8643;48.824;11.422;2023-04-26T03:20:54;96876.13;;;2.86;100.00
17054;BME280;8643;48.824;11.422;2023-04-26T03:23:24;96874.53;;;2.85;100.00
17054;BME280;8643;48.824;11.422;2023-04-26T03:25:54;96877.97;;;2.91;100.00
17054;BME280;8643;48.824;11.422;2023-04-26T03:28:22;96877.38;;;2.99;100.00
17054;BME280;8643;48.824;11.422;2023-04-26T03:30:51;96881.53;;;3.16;100.00
17054;BME280;8643;48.824;11.422;2023-04-26T03:33:21;96882.53;;;3.25;100.00
17054;BME280;8643;48.824;11.422;2023-04-26T03:35:50;96882.84;;;3.47;100.00
17054;BME280;8643;48.824;11.422;2023-04-26T03:38:18;96889.69;;;3.40;100.00
17054;BME280;8643;48.824;11.422;2023-04-26T03:40:47;96887.50;;;3.42;100.00
17054;BME280;8643;48.824;11.422;2023-04-26T03:43:15;96892.56;;;3.48;100.00
17054;BME280;8643;48.824;11.422;2023-04-26T03:45:46;96895.13;;;3.40;100.00
17054;BME280;8643;48.824;11.422;2023-04-26T03:48:16;96900.31;;;3.36;100.00
17054;BME280;8643;48.824;11.422;2023-04-26T03:50:46;96900.25;;;3.41;100.00
17054;BME280;8643;48.824;11.422;2023-04-26T03:53:15;96899.19;;;3.37;100.00
17054;BME280;8643;48.824;11.422;2023-04-26T03:55:44;96893.69;;;3.47;100.00
17054;BME280;8643;48.824;11.422;2023-04-26T03:58:13;96900.31;;;3.36;100.00
17054;BME280;8643;48.824;11.422;2023-04-26T04:00:41;96903.56;;;3.33;100.00
17054;BME280;8643;48.824;11.422;2023-04-26T04:03:10;96905.22;;;3.29;100.00
17054;BME280;8643;48.824;11.422;2023-04-26T04:05:39;96910.47;;;3.20;100.00
17054;BME280;8643;48.824;11.422;2023-04-26T04:08:10;96902.94;;;3.12;100.00
17054;BME280;8643;48.824;11.422;2023-04-26T04:10:38;96905.22;;;3.00;100.00
17054;BME280;8643;48.824;11.422;2023-04-26T04:13:09;96912.00;;;2.97;100.00
17054;BME280;8643;48.824;11.422;2023-04-26T04:15:38;96910.38;;;2.96;100.00
17054;BME280;8643;48.824;11.422;2023-04-26T04:18:07;96908.28;;;2.88;100.00
17054;BME280;8643;48.824;11.422;2023-04-26T04:20:36;96909.34;;;2.92;100.00
17054;BME280;8643;48.824;11.422;2023-04-26T04:23:05;96907.97;;;2.94;100.00
17054;BME280;8643;48.824;11.422;2023-04-26T04:25:36;96913.69;;;2.88;100.00
17054;BME280;8643;48.824;11.422;2023-04-26T04:28:08;96911.78;;;2.88;100.00
17054;BME280;8643;48.824;11.422;2023-04-26T04:30:38;96910.19;;;2.87;100.00
17054;BME280;8643;48.824;11.422;2023-04-26T04:33:07;96914.31;;;2.80;100.00
17054;BME280;8643;48.824;11.422;2023-04-26T04:35:36;96917.34;;;2.73;100.00
17054;BME280;8643;48.824;11.422;2023-04-26T04:38:05;96915.22;;;2.65;100.00
17054;BME280;8643;48.824;11.422;2023-04-26T04:40:36;96918.72;;;2.65;100.00
17054;BME280;8643;48.824;11.422;2023-04-26T04:43:04;96919.84;;;2.59;100.00
17054;BME280;8643;48.824;11.422;2023-04-26T04:45:34;96917.13;;;2.59;100.00
17054;BME280;8643;48.824;11.422;2023-04-26T04:48:05;96921.44;;;2.65;100.00
17054;BME280;8643;48.824;11.422;2023-04-26T04:50:35;96922.69;;;2.78;100.00
17054;BME280;8643;48.824;11.422;2023-04-26T04:53:04;96920.66;;;2.99;100.00
17054;BME280;8643;48.824;11.422;2023-04-26T04:55:33;96923.84;;;3.36;100.00
17054;BME280;8643;48.824;11.422;2023-04-26T04:58:04;96928.88;;;3.47;100.00
17054;BME280;8643;48.824;11.422;2023-04-26T05:00:33;96931.09;;;3.40;100.00
17054;BME280;8643;48.824;11.422;2023-04-26T05:03:19;96931.25;;;3.54;100.00
17054;BME280;8643;48.824;11.422;2023-04-26T05:05:48;96934.66;;;3.65;100.00
17054;BME280;8643;48.824;11.422;2023-04-26T05:08:16;96939.31;;;3.59;100.00
17054;BME280;8643;48.824;11.422;2023-04-26T05:10:46;96941.47;;;3.62;100.00
17054;BME280;8643;48.824;11.422;2023-04-26T05:13:16;96936.28;;;3.66;100.00
17054;BME280;8643;48.824;11.422;2023-04-26T05:15:45;96934.28;;;3.77;100.00
17054;BME280;8643;48.824;11.422;2023-04-26T05:18:13;96931.84;;;3.75;100.00
17054;BME280;8643;48.824;11.422;2023-04-26T05:20:42;96929.88;;;3.81;100.00
17054;BME280;8643;48.824;11.422;2023-04-26T05:23:11;96929.81;;;3.86;100.00
17054;BME280;8643;48.824;11.422;2023-04-26T05:25:40;96932.16;;;3.93;100.00
17054;BME280;8643;48.824;11.422;2023-04-26T05:28:29;96923.94;;;4.03;100.00
17054;BME280;8643;48.824;11.422;2023-04-26T05:31:13;96927.56;;;4.17;100.00
17054;BME280;8643;48.824;11.422;2023-04-26T05:34:00;96936.13;;;4.25;100.00
17054;BME280;8643;48.824;11.422;2023-04-26T05:36:33;96935.47;;;4.33;100.00
17054;BME280;8643;48.824;11.422;2023-04-26T05:39:03;96951.41;;;4.58;100.00
17054;BME280;8643;48.824;11.422;2023-04-26T05:41:33;96960.50;;;4.49;100.00
17054;BME280;8643;48.824;11.422;2023-04-26T05:44:03;96966.78;;;4.44;100.00
17054;BME280;8643;48.824;11.422;2023-04-26T05:46:32;96964.06;;;4.44;100.00
17054;BME280;8643;48.824;11.422;2023-04-26T05:49:01;96969.91;;;4.56;100.00
17054;BME280;8643;48.824;11.422;2023-04-26T05:51:31;96968.41;;;4.45;100.00
17054;BME280;8643;48.824;11.422;2023-04-26T05:53:59;96970.84;;;4.66;100.00
17054;BME280;8643;48.824;11.422;2023-04-26T05:56:28;96962.13;;;4.69;100.00
17054;BME280;8643;48.824;11.422;2023-04-26T05:58:57;96980.63;;;4.43;100.00
17054;BME280;8643;48.824;11.422;2023-04-26T06:01:27;96971.84;;;4.89;100.00
17054;BME280;8643;48.824;11.422;2023-04-26T06:03:56;96965.63;;;5.87;100.00
17054;BME280;8643;48.824;11.422;2023-04-26T06:06:33;96976.94;;;6.50;100.00
17054;BME280;8643;48.824;11.422;2023-04-26T06:09:02;96971.91;;;6.57;98.33
17054;BME280;8643;48.824;11.422;2023-04-26T06:11:31;96974.25;;;6.86;98.19
17054;BME280;8643;48.824;11.422;2023-04-26T06:14:00;96978.03;;;6.63;100.00
17054;BME280;8643;48.824;11.422;2023-04-26T06:16:30;96973.50;;;6.58;100.00
17054;BME280;8643;48.824;11.422;2023-04-26T06:18:58;96980.09;;;6.01;99.80
17054;BME280;8643;48.824;11.422;2023-04-26T06:21:28;96979.47;;;6.18;99.18
17054;BME280;8643;48.824;11.422;2023-04-26T06:23:57;96988.94;;;6.07;98.69
17054;BME280;8643;48.824;11.422;2023-04-26T06:26:28;96988.31;;;6.52;98.57
17054;BME280;8643;48.824;11.422;2023-04-26T06:28:57;96989.41;;;6.65;96.86
17054;BME280;8643;48.824;11.422;2023-04-26T06:31:26;96989.88;;;6.81;94.14
17054;BME280;8643;48.824;11.422;2023-04-26T06:33:58;96987.44;;;6.42;97.66
17054;BME280;8643;48.824;11.422;2023-04-26T06:36:27;96983.94;;;6.78;96.01
17054;BME280;8643;48.824;11.422;2023-04-26T06:38:57;96993.28;;;7.23;93.72
17054;BME280;8643;48.824;11.422;2023-04-26T06:41:26;96995.94;;;7.59;88.41
17054;BME280;8643;48.824;11.422;2023-04-26T06:43:55;96994.13;;;7.77;88.80
17054;BME280;8643;48.824;11.422;2023-04-26T06:46:30;97006.84;;;7.59;87.26
17054;BME280;8643;48.824;11.422;2023-04-26T06:49:02;97000.91;;;7.88;86.58
17054;BME280;8643;48.824;11.422;2023-04-26T06:51:31;97006.81;;;7.82;86.72
17054;BME280;8643;48.824;11.422;2023-04-26T06:54:00;97010.91;;;7.93;87.85
17054;BME280;8643;48.824;11.422;2023-04-26T06:56:28;97015.75;;;7.74;85.93
17054;BME280;8643;48.824;11.422;2023-04-26T06:58:59;97018.16;;;7.75;83.82
17054;BME280;8643;48.824;11.422;2023-04-26T07:01:28;97008.03;;;7.67;83.53
17054;BME280;8643;48.824;11.422;2023-04-26T07:04:01;97015.50;;;7.84;83.95
17054;BME280;8643;48.824;11.422;2023-04-26T07:06:31;97019.44;;;8.40;84.53
17054;BME280;8643;48.824;11.422;2023-04-26T07:09:00;97016.34;;;8.73;79.53
17054;BME280;8643;48.824;11.422;2023-04-26T07:11:31;97013.94;;;7.92;79.53
17054;BME280;8643;48.824;11.422;2023-04-26T07:13:59;97014.69;;;7.83;78.90
17054;BME280;8643;48.824;11.422;2023-04-26T07:16:28;97010.63;;;8.35;80.81
17054;BME280;8643;48.824;11.422;2023-04-26T07:18:57;97010.63;;;9.62;74.90
17054;BME280;8643;48.824;11.422;2023-04-26T07:21:27;97011.44;;;9.71;79.50
17054;BME280;8643;48.824;11.422;2023-04-26T07:23:56;97005.50;;;10.94;71.00
17054;BME280;8643;48.824;11.422;2023-04-26T07:26:25;97005.09;;;11.04;70.94
17054;BME280;8643;48.824;11.422;2023-04-26T07:28:54;96998.53;;;10.96;71.51
17054;BME280;8643;48.824;11.422;2023-04-26T07:31:22;96998.19;;;11.61;60.55
17054;BME280;8643;48.824;11.422;2023-04-26T07:33:51;97002.91;;;11.18;64.79
17054;BME280;8643;48.824;11.422;2023-04-26T07:36:20;97002.78;;;11.36;62.59
17054;BME280;8643;48.824;11.422;2023-04-26T07:38:52;97008.34;;;12.77;58.69
17054;BME280;8643;48.824;11.422;2023-04-26T07:41:21;97004.81;;;12.76;61.62
17054;BME280;8643;48.824;11.422;2023-04-26T07:43:50;96998.84;;;12.99;57.28
17054;BME280;8643;48.824;11.422;2023-04-26T07:46:21;96994.53;;;13.26;55.78
17054;BME280;8643;48.824;11.422;2023-04-26T07:48:50;97002.53;;;12.54;54.38
17054;BME280;8643;48.824;11.422;2023-04-26T07:51:18;97007.88;;;12.87;54.42
17054;BME280;8643;48.824;11.422;2023-04-26T07:53:47;96997.13;;;12.33;52.39
17054;BME280;8643;48.824;11.422;2023-04-26T07:56:17;97005.38;;;12.45;53.23
17054;BME280;8643;48.824;11.422;2023-04-26T07:58:46;97004.38;;;13.27;53.79
17054;BME280;8643;48.824;11.422;2023-04-26T08:01:14;96996.19;;;13.55;48.81
17054;BME280;8643;48.824;11.422;2023-04-26T08:03:43;97011.06;;;13.01;49.61
17054;BME280;8643;48.824;11.422;2023-04-26T08:06:12;97000.81;;;12.86;48.82
17054;BME280;8643;48.824;11.422;2023-04-26T08:08:41;96998.84;;;12.13;52.00
17054;BME280;8643;48.824;11.422;2023-04-26T08:11:11;96999.75;;;11.83;52.50
17054;BME280;8643;48.824;11.422;2023-04-26T08:13:41;97001.38;;;12.42;51.97
17054;BME280;8643;48.824;11.422;2023-04-26T08:16:11;96999.19;;;11.56;51.58
17054;BME280;8643;48.824;11.422;2023-04-26T08:18:39;97001.66;;;10.86;53.40
17054;BME280;8643;48.824;11.422;2023-04-26T08:21:12;96998.69;;;12.09;55.74
17054;BME280;8643;48.824;11.422;2023-04-26T08:23:41;97001.56;;;13.64;48.73
17054;BME280;8643;48.824;11.422;2023-04-26T08:26:10;97001.16;;;13.37;52.81
17054;BME280;8643;48.824;11.422;2023-04-26T08:28:38;96994.00;;;14.05;50.31
17054;BME280;8643;48.824;11.422;2023-04-26T08:31:08;96990.03;;;14.82;48.92
17054;BME280;8643;48.824;11.422;2023-04-26T08:33:37;96994.19;;;15.47;47.94
17054;BME280;8643;48.824;11.422;2023-04-26T08:36:06;96992.25;;;14.77;49.98
17054;BME280;8643;48.824;11.422;2023-04-26T08:38:34;96993.78;;;14.42;45.35
17054;BME280;8643;48.824;11.422;2023-04-26T08:41:04;96997.28;;;13.67;49.52
17054;BME280;8643;48.824;11.422;2023-04-26T08:43:37;96996.22;;;12.78;49.46
17054;BME280;8643;48.824;11.422;2023-04-26T08:46:09;97000.22;;;12.31;51.87
17054;BME280;8643;48.824;11.422;2023-04-26T08:48:40;97006.47;;;12.07;53.01
17054;BME280;8643;48.824;11.422;2023-04-26T08:51:11;97010.78;;;11.20;50.65
17054;BME280;8643;48.824;11.422;2023-04-26T08:53:42;97007.59;;;11.94;56.13
17054;BME280;8643;48.824;11.422;2023-04-26T08:56:12;97010.91;;;11.99;50.04
17054;BME280;8643;48.824;11.422;2023-04-26T08:58:41;97005.91;;;10.45;52.08
17054;BME280;8643;48.824;11.422;2023-04-26T09:01:14;96999.91;;;11.66;51.97
17054;BME280;8643;48.824;11.422;2023-04-26T09:03:43;96993.13;;;12.55;51.76
17054;BME280;8643;48.824;11.422;2023-04-26T09:06:13;96995.03;;;12.17;49.98
17054;BME280;8643;48.824;11.422;2023-04-26T09:08:42;96995.59;;;11.44;50.57
17054;BME280;8643;48.824;11.422;2023-04-26T09:11:11;96996.50;;;12.02;51.20
17054;BME280;8643;48.824;11.422;2023-04-26T09:13:40;97000.94;;;12.40;50.42
17054;BME280;8643;48.824;11.422;2023-04-26T09:16:10;96994.56;;;11.69;48.56
17054;BME280;8643;48.824;11.422;2023-04-26T09:18:48;96999.53;;;11.13;51.24
17054;BME280;8643;48.824;11.422;2023-04-26T09:21:18;96994.56;;;10.85;50.47
17054;BME280;8643;48.824;11.422;2023-04-26T09:23:57;97004.25;;;10.05;51.96
17054;BME280;8643;48.824;11.422;2023-04-26T09:26:28;96998.31;;;10.51;53.71
17054;BME280;8643;48.824;11.422;2023-04-26T09:29:18;96998.13;;;10.86;51.14
17054;BME280;8643;48.824;11.422;2023-04-26T09:31:49;96990.94;;;11.23;53.54
17054;BME280;8643;48.824;11.422;2023-04-26T09:34:18;96995.00;;;11.38;54.02
17054;BME280;8643;48.824;11.422;2023-04-26T09:36:48;96981.44;;;11.21;52.14
17054;BME280;8643;48.824;11.422;2023-04-26T09:39:31;96988.88;;;12.94;48.29
17054;BME280;8643;48.824;11.422;2023-04-26T09:42:00;96982.09;;;14.17;43.61
17054;BME280;8643;48.824;11.422;2023-04-26T09:44:31;96983.97;;;14.93;46.15
17054;BME280;8643;48.824;11.422;2023-04-26T09:47:02;96982.19;;;14.84;45.37
17054;BME280;8643;48.824;11.422;2023-04-26T09:49:41;96985.03;;;14.40;46.13
17054;BME280;8643;48.824;11.422;2023-04-26T09:52:10;96993.72;;;12.73;48.53
17054;BME280;8643;48.824;11.422;2023-04-26T09:54:41;96985.81;;;11.88;51.05
17054;BME280;8643;48.824;11.422;2023-04-26T09:57:12;96988.34;;;10.46;53.94
17054;BME280;8643;48.824;11.422;2023-04-26T09:59:43;96983.16;;;11.04;56.23
17054;BME280;8643;48.824;11.422;2023-04-26T10:02:19;96987.31;;;11.10;52.48
17054;BME280;8643;48.824;11.422;2023-04-26T10:04:50;96980.56;;;11.29;50.92
17054;BME280;8643;48.824;11.422;2023-04-26T10:07:23;96985.94;;;10.44;51.08
17054;BME280;8643;48.824;11.422;2023-04-26T10:09:53;96986.28;;;10.43;51.92
17054;BME280;8643;48.824;11.422;2023-04-26T10:12:22;96979.06;;;10.38;53.81
17054;BME280;8643;48.824;11.422;2023-04-26T10:14:50;96970.94;;;10.51;54.67
17054;BME280;8643;48.824;11.422;2023-04-26T10:17:21;96975.34;;;10.43;53.83
17054;BME280;8643;48.824;11.422;2023-04-26T10:19:54;96977.13;;;11.53;52.32
17054;BME280;8643;48.824;11.422;2023-04-26T10:22:28;96969.59;;;13.07;48.77
17054;BME280;8643;48.824;11.422;2023-04-26T10:25:00;96977.91;;;12.45;49.30
17054;BME280;8643;48.824;11.422;2023-04-26T10:27:47;96976.56;;;12.39;49.31
17054;BME280;8643;48.824;11.422;2023-04-26T10:30:17;96966.72;;;11.59;49.50
17054;BME280;8643;48.824;11.422;2023-04-26T10:33:11;96964.53;;;11.52;49.29
17054;BME280;8643;48.824;11.422;2023-04-26T10:36:04;96964.72;;;11.34;49.41
17054;BME280;8643;48.824;11.422;2023-04-26T10:38:35;96963.78;;;11.09;48.84
17054;BME280;8643;48.824;11.422;2023-04-26T10:41:29;96961.50;;;11.11;49.14
17054;BME280;8643;48.824;11.422;2023-04-26T10:44:38;96961.25;;;11.25;49.53
17054;BME280;8643;48.824;11.422;2023-04-26T10:47:21;96960.91;;;13.05;45.84
17054;BME280;8643;48.824;11.422;2023-04-26T10:49:51;96949.41;;;14.00;42.16
17054;BME280;8643;48.824;11.422;2023-04-26T10:52:20;96948.00;;;12.93;45.79
17054;BME280;8643;48.824;11.422;2023-04-26T10:54:55;96953.00;;;13.56;44.64
17054;BME280;8643;48.824;11.422;2023-04-26T10:57:56;96954.81;;;12.46;46.85
17054;BME280;8643;48.824;11.422;2023-04-26T11:00:29;96953.59;;;11.31;47.32
17054;BME280;8643;48.824;11.422;2023-04-26T11:03:04;96951.59;;;11.40;50.84
17054;BME280;8643;48.824;11.422;2023-04-26T11:05:51;96950.25;;;11.46;49.36
17054;BME280;8643;48.824;11.422;2023-04-26T11:08:24;96947.44;;;11.00;49.33
17054;BME280;8643;48.824;11.422;2023-04-26T11:11:05;96946.22;;;10.89;50.87
17054;BME280;8643;48.824;11.422;2023-04-26T11:13:36;96942.47;;;10.94;51.33
17054;BME280;8643;48.824;11.422;2023-04-26T11:16:06;96943.69;;;11.26;49.78
17054;BME280;8643;48.824;11.422;2023-04-26T11:18:37;96945.47;;;11.01;48.57
17054;BME280;8643;48.824;11.422;2023-04-26T11:21:08;96943.88;;;11.00;50.74
17054;BME280;8643;48.824;11.422;2023-04-26T11:23:36;96947.34;;;11.09;49.35
17054;BME280;8643;48.824;11.422;2023-04-26T11:26:06;96945.75;;;10.66;50.25
17054;BME280;8643;48.824;11.422;2023-04-26T11:28:37;96945.88;;;12.24;49.68
17054;BME280;8643;48.824;11.422;2023-04-26T11:31:07;96932.19;;;14.03;45.59
17054;BME280;8643;48.824;11.422;2023-04-26T11:33:36;96931.88;;;11.92;45.59
17054;BME280;8643;48.824;11.422;2023-04-26T11:36:06;96934.06;;;10.78;48.08
17054;BME280;8643;48.824;11.422;2023-04-26T11:38:36;96934.81;;;10.57;48.88
17054;BME280;8643;48.824;11.422;2023-04-26T11:41:05;96940.13;;;10.83;51.93
17054;BME280;8643;48.824;11.422;2023-04-26T11:43:38;96935.19;;;11.52;47.78
17054;BME280;8643;48.824;11.422;2023-04-26T11:46:08;96921.28;;;13.62;47.79
17054;BME280;8643;48.824;11.422;2023-04-26T11:48:38;96929.50;;;14.38;43.00
17054;BME280;8643;48.824;11.422;2023-04-26T11:51:09;96926.03;;;15.90;40.17
17054;BME280;8643;48.824;11.422;2023-04-26T11:53:39;96919.78;;;17.54;39.12
17054;BME280;8643;48.824;11.422;2023-04-26T11:56:13;96927.28;;;16.66;36.13
17054;BME280;8643;48.824;11.422;2023-04-26T11:58:46;96929.59;;;15.29;39.79
17054;BME280;8643;48.824;11.422;2023-04-26T12:01:22;96935.97;;;13.66;42.39
17054;BME280;8643;48.824;11.422;2023-04-26T12:03:53;96920.72;;;13.85;44.20
17054;BME280;8643;48.824;11.422;2023-04-26T12:06:30;96927.31;;;16.20;41.26
17054;BME280;8643;48.824;11.422;2023-04-26T12:09:01;96922.56;;;17.23;40.53
17054;BME280;8643;48.824;11.422;2023-04-26T12:11:32;96924.16;;;15.75;39.33
17054;BME280;8643;48.824;11.422;2023-04-26T12:14:01;96935.72;;;14.67;42.01
17054;BME280;8643;48.824;11.422;2023-04-26T12:16:30;96927.31;;;14.12;44.48
17054;BME280;8643;48.824;11.422;2023-04-26T12:18:59;96928.91;;;13.97;43.64
17054;BME280;8643;48.824;11.422;2023-04-26T12:21:42;96931.53;;;13.78;42.64
17054;BME280;8643;48.824;11.422;2023-04-26T12:24:24;96925.25;;;12.68;44.91
17054;BME280;8643;48.824;11.422;2023-04-26T12:26:56;96928.25;;;12.38;46.17
17054;BME280;8643;48.824;11.422;2023-04-26T12:29:28;96929.06;;;14.04;44.58
17054;BME280;8643;48.824;11.422;2023-04-26T12:31:58;96917.09;;;14.12;41.15
17054;BME280;8643;48.824;11.422;2023-04-26T12:34:27;96918.44;;;13.87;43.50
17054;BME280;8643;48.824;11.422;2023-04-26T12:36:59;96923.28;;;13.33;43.45
17054;BME280;8643;48.824;11.422;2023-04-26T12:39:28;96909.53;;;13.33;43.70
17054;BME280;8643;48.824;11.422;2023-04-26T12:41:57;96925.16;;;13.17;45.24
17054;BME280;8643;48.824;11.422;2023-04-26T12:44:25;96908.13;;;13.84;43.56
17054;BME280;8643;48.824;11.422;2023-04-26T12:46:54;96916.03;;;14.17;41.94
17054;BME280;8643;48.824;11.422;2023-04-26T12:49:23;96897.34;;;14.42;41.42
17054;BME280;8643;48.824;11.422;2023-04-26T12:51:51;96913.50;;;13.64;39.18
17054;BME280;8643;48.824;11.422;2023-04-26T12:54:21;96900.50;;;13.49;42.67
17054;BME280;8643;48.824;11.422;2023-04-26T12:56:50;96902.94;;;14.62;41.25
17054;BME280;8643;48.824;11.422;2023-04-26T12:59:19;96903.16;;;15.70;39.30
17054;BME280;8643;48.824;11.422;2023-04-26T13:01:48;96890.50;;;15.27;39.02
17054;BME280;8643;48.824;11.422;2023-04-26T13:04:17;96896.91;;;14.92;41.37
17054;BME280;8643;48.824;11.422;2023-04-26T13:06:46;96900.66;;;14.83;39.85
17054;BME280;8643;48.824;11.422;2023-04-26T13:09:15;96897.47;;;14.81;41.59
17054;BME280;8643;48.824;11.422;2023-04-26T13:11:44;96903.97;;;12.64;42.36
17054;BME280;8643;48.824;11.422;2023-04-26T13:14:13;96892.84;;;13.14;43.18
17054;BME280;8643;48.824;11.422;2023-04-26T13:16:42;96886.53;;;13.86;41.41
17054;BME280;8643;48.824;11.422;2023-04-26T13:19:11;96888.75;;;14.99;40.86